sensor_id;sensor_type;location;lat;lon;timestamp;P1;durP1;ratioP1;P2;durP2;ratioP2
17864;SDS011;9058;52.018;4.202;2023-02-04T00:01:40;33.90;;;5.75;;
17864;SDS011;9058;52.018;4.202;2023-02-04T00:04:07;39.33;;;5.43;;
17864;SDS011;9058;52.018;4.202;2023-02-04T00:06:33;33.78;;;5.47;;
17864;SDS011;9058;52.018;4.202;2023-02-04T00:09:00;42.00;;;6.32;;
17864;SDS011;9058;52.018;4.202;2023-02-04T00:11:26;41.30;;;6.45;;
17864;SDS011;9058;52.018;4.202;2023-02-04T00:13:54;36.00;;;4.80;;
17864;SDS011;9058;52.018;4.202;2023-02-04T00:16:20;35.08;;;5.95;;
17864;SDS011;9058;52.018;4.202;2023-02-04T00:18:46;30.13;;;5.63;;
17864;SDS011;9058;52.018;4.202;2023-02-04T00:21:13;38.83;;;5.70;;
17864;SDS011;9058;52.018;4.202;2023-02-04T00:23:40;40.17;;;5.10;;
17864;SDS011;9058;52.018;4.202;2023-02-04T00:26:07;38.85;;;5.53;;
17864;SDS011;9058;52.018;4.202;2023-02-04T00:28:33;38.17;;;5.97;;
17864;SDS011;9058;52.018;4.202;2023-02-04T00:31:01;36.83;;;5.50;;
17864;SDS011;9058;52.018;4.202;2023-02-04T00:33:27;38.10;;;5.82;;
17864;SDS011;9058;52.018;4.202;2023-02-04T00:35:54;37.63;;;5.57;;
17864;SDS011;9058;52.018;4.202;2023-02-04T00:38:20;37.75;;;6.13;;
17864;SDS011;9058;52.018;4.202;2023-02-04T00:40:47;29.00;;;6.13;;
17864;SDS011;9058;52.018;4.202;2023-02-04T00:43:14;41.45;;;7.47;;
17864;SDS011;9058;52.018;4.202;2023-02-04T00:45:41;32.78;;;6.75;;
17864;SDS011;9058;52.018;4.202;2023-02-04T00:48:09;36.08;;;5.75;;
17864;SDS011;9058;52.018;4.202;2023-02-04T00:50:35;36.55;;;5.72;;
17864;SDS011;9058;52.018;4.202;2023-02-04T00:53:03;48.40;;;6.90;;
17864;SDS011;9058;52.018;4.202;2023-02-04T00:55:30;37.15;;;6.78;;
17864;SDS011;9058;52.018;4.202;2023-02-04T00:57:56;30.15;;;7.10;;
17864;SDS011;9058;52.018;4.202;2023-02-04T01:00:22;44.03;;;8.45;;
17864;SDS011;9058;52.018;4.202;2023-02-04T01:02:49;47.10;;;8.52;;
17864;SDS011;9058;52.018;4.202;2023-02-04T01:05:17;48.13;;;8.63;;
17864;SDS011;9058;52.018;4.202;2023-02-04T01:07:43;41.97;;;9.52;;
17864;SDS011;9058;52.018;4.202;2023-02-04T01:10:09;42.92;;;9.30;;
17864;SDS011;9058;52.018;4.202;2023-02-04T01:12:36;44.47;;;9.00;;
17864;SDS011;9058;52.018;4.202;2023-02-04T01:15:03;38.90;;;10.75;;
17864;SDS011;9058;52.018;4.202;2023-02-04T01:17:29;48.60;;;10.52;;
17864;SDS011;9058;52.018;4.202;2023-02-04T01:19:56;43.47;;;9.65;;
17864;SDS011;9058;52.018;4.202;2023-02-04T01:22:24;54.50;;;10.25;;
17864;SDS011;9058;52.018;4.202;2023-02-04T01:24:50;43.90;;;10.07;;
17864;SDS011;9058;52.018;4.202;2023-02-04T01:27:19;54.50;;;10.13;;
17864;SDS011;9058;52.018;4.202;2023-02-04T01:29:45;56.65;;;11.65;;
17864;SDS011;9058;52.018;4.202;2023-02-04T01:32:12;48.42;;;11.07;;
17864;SDS011;9058;52.018;4.202;2023-02-04T01:34:38;48.60;;;12.55;;
17864;SDS011;9058;52.018;4.202;2023-02-04T01:37:05;56.08;;;10.75;;
17864;SDS011;9058;52.018;4.202;2023-02-04T01:39:33;58.10;;;10.88;;
17864;SDS011;9058;52.018;4.202;2023-02-04T01:42:02;54.33;;;11.85;;
17864;SDS011;9058;52.018;4.202;2023-02-04T01:44:28;53.38;;;11.73;;
17864;SDS011;9058;52.018;4.202;2023-02-04T01:46:58;55.15;;;12.27;;
17864;SDS011;9058;52.018;4.202;2023-02-04T01:49:24;43.60;;;10.13;;
17864;SDS011;9058;52.018;4.202;2023-02-04T01:51:51;52.25;;;9.15;;
17864;SDS011;9058;52.018;4.202;2023-02-04T01:54:17;52.53;;;8.85;;
17864;SDS011;9058;52.018;4.202;2023-02-04T01:56:47;37.30;;;8.35;;
17864;SDS011;9058;52.018;4.202;2023-02-04T01:59:15;35.58;;;6.75;;
17864;SDS011;9058;52.018;4.202;2023-02-04T02:01:44;35.78;;;6.15;;
17864;SDS011;9058;52.018;4.202;2023-02-04T02:04:12;52.25;;;7.13;;
17864;SDS011;9058;52.018;4.202;2023-02-04T02:06:39;50.25;;;7.90;;
17864;SDS011;9058;52.018;4.202;2023-02-04T02:09:07;41.00;;;6.47;;
17864;SDS011;9058;52.018;4.202;2023-02-04T02:11:34;38.30;;;7.10;;
17864;SDS011;9058;52.018;4.202;2023-02-04T02:14:02;31.35;;;4.70;;
17864;SDS011;9058;52.018;4.202;2023-02-04T02:16:28;44.25;;;6.55;;
17864;SDS011;9058;52.018;4.202;2023-02-04T02:18:55;25.15;;;5.13;;
17864;SDS011;9058;52.018;4.202;2023-02-04T02:21:26;40.50;;;5.10;;
17864;SDS011;9058;52.018;4.202;2023-02-04T02:23:56;31.38;;;5.60;;
17864;SDS011;9058;52.018;4.202;2023-02-04T02:26:24;39.80;;;5.80;;
17864;SDS011;9058;52.018;4.202;2023-02-04T02:28:51;31.70;;;5.32;;
17864;SDS011;9058;52.018;4.202;2023-02-04T02:31:19;28.70;;;5.20;;
17864;SDS011;9058;52.018;4.202;2023-02-04T02:33:46;33.45;;;5.75;;
17864;SDS011;9058;52.018;4.202;2023-02-04T02:36:13;37.53;;;6.85;;
17864;SDS011;9058;52.018;4.202;2023-02-04T02:38:39;38.60;;;6.60;;
17864;SDS011;9058;52.018;4.202;2023-02-04T02:41:08;43.10;;;6.95;;
17864;SDS011;9058;52.018;4.202;2023-02-04T02:43:36;46.40;;;8.07;;
17864;SDS011;9058;52.018;4.202;2023-02-04T02:46:04;48.60;;;7.88;;
17864;SDS011;9058;52.018;4.202;2023-02-04T02:48:32;44.50;;;8.85;;
17864;SDS011;9058;52.018;4.202;2023-02-04T02:50:59;60.60;;;9.57;;
17864;SDS011;9058;52.018;4.202;2023-02-04T02:53:25;45.33;;;8.88;;
17864;SDS011;9058;52.018;4.202;2023-02-04T02:55:52;43.25;;;8.95;;
17864;SDS011;9058;52.018;4.202;2023-02-04T02:58:21;45.50;;;9.80;;
17864;SDS011;9058;52.018;4.202;2023-02-04T03:00:48;47.90;;;8.50;;
17864;SDS011;9058;52.018;4.202;2023-02-04T03:03:16;59.45;;;8.52;;
17864;SDS011;9058;52.018;4.202;2023-02-04T03:05:47;43.75;;;7.07;;
17864;SDS011;9058;52.018;4.202;2023-02-04T03:08:15;56.40;;;9.25;;
17864;SDS011;9058;52.018;4.202;2023-02-04T03:10:42;42.35;;;8.80;;
17864;SDS011;9058;52.018;4.202;2023-02-04T03:13:09;53.17;;;9.70;;
17864;SDS011;9058;52.018;4.202;2023-02-04T03:15:37;40.28;;;7.60;;
17864;SDS011;9058;52.018;4.202;2023-02-04T03:18:03;40.83;;;7.72;;
17864;SDS011;9058;52.018;4.202;2023-02-04T03:20:30;51.30;;;7.80;;
17864;SDS011;9058;52.018;4.202;2023-02-04T03:22:57;41.42;;;7.32;;
17864;SDS011;9058;52.018;4.202;2023-02-04T03:25:23;38.72;;;6.35;;
17864;SDS011;9058;52.018;4.202;2023-02-04T03:27:50;47.40;;;7.47;;
17864;SDS011;9058;52.018;4.202;2023-02-04T03:30:19;35.70;;;7.32;;
17864;SDS011;9058;52.018;4.202;2023-02-04T03:32:46;48.38;;;6.95;;
17864;SDS011;9058;52.018;4.202;2023-02-04T03:35:13;36.63;;;6.22;;
17864;SDS011;9058;52.018;4.202;2023-02-04T03:37:39;42.45;;;6.63;;
17864;SDS011;9058;52.018;4.202;2023-02-04T03:40:06;35.83;;;5.32;;
17864;SDS011;9058;52.018;4.202;2023-02-04T03:42:32;41.85;;;5.43;;
17864;SDS011;9058;52.018;4.202;2023-02-04T03:44:58;32.50;;;5.10;;
17864;SDS011;9058;52.018;4.202;2023-02-04T03:47:25;29.52;;;4.97;;
17864;SDS011;9058;52.018;4.202;2023-02-04T03:49:53;35.53;;;5.80;;
17864;SDS011;9058;52.018;4.202;2023-02-04T03:52:19;34.92;;;5.20;;
17864;SDS011;9058;52.018;4.202;2023-02-04T03:54:45;34.35;;;5.00;;
17864;SDS011;9058;52.018;4.202;2023-02-04T03:57:14;40.55;;;6.38;;
17864;SDS011;9058;52.018;4.202;2023-02-04T03:59:41;37.08;;;6.38;;
17864;SDS011;9058;52.018;4.202;2023-02-04T04:02:07;39.95;;;6.70;;
17864;SDS011;9058;52.018;4.202;2023-02-04T04:04:33;42.83;;;7.55;;
17864;SDS011;9058;52.018;4.202;2023-02-04T04:07:01;33.70;;;7.40;;
17864;SDS011;9058;52.018;4.202;2023-02-04T04:09:28;42.45;;;7.82;;
17864;SDS011;9058;52.018;4.202;2023-02-04T04:11:55;47.47;;;8.52;;
17864;SDS011;9058;52.018;4.202;2023-02-04T04:14:21;39.70;;;6.57;;
17864;SDS011;9058;52.018;4.202;2023-02-04T04:16:48;34.92;;;7.30;;
17864;SDS011;9058;52.018;4.202;2023-02-04T04:19:14;35.92;;;6.50;;
17864;SDS011;9058;52.018;4.202;2023-02-04T04:21:40;29.52;;;7.78;;
17864;SDS011;9058;52.018;4.202;2023-02-04T04:24:09;37.28;;;7.03;;
17864;SDS011;9058;52.018;4.202;2023-02-04T04:26:35;37.40;;;8.30;;
17864;SDS011;9058;52.018;4.202;2023-02-04T04:29:02;39.60;;;7.80;;
17864;SDS011;9058;52.018;4.202;2023-02-04T04:31:31;42.58;;;8.15;;
17864;SDS011;9058;52.018;4.202;2023-02-04T04:33:57;42.03;;;7.88;;
17864;SDS011;9058;52.018;4.202;2023-02-04T04:36:23;44.70;;;10.35;;
17864;SDS011;9058;52.018;4.202;2023-02-04T04:38:50;41.97;;;10.18;;
17864;SDS011;9058;52.018;4.202;2023-02-04T04:41:18;37.58;;;8.68;;
17864;SDS011;9058;52.018;4.202;2023-02-04T04:43:44;41.35;;;9.25;;
17864;SDS011;9058;52.018;4.202;2023-02-04T04:46:10;40.60;;;9.52;;
17864;SDS011;9058;52.018;4.202;2023-02-04T04:48:37;39.25;;;8.52;;
17864;SDS011;9058;52.018;4.202;2023-02-04T04:51:04;34.92;;;9.30;;
17864;SDS011;9058;52.018;4.202;2023-02-04T04:53:30;44.10;;;10.27;;
17864;SDS011;9058;52.018;4.202;2023-02-04T04:55:56;41.55;;;9.25;;
17864;SDS011;9058;52.018;4.202;2023-02-04T04:58:25;38.13;;;9.35;;
17864;SDS011;9058;52.018;4.202;2023-02-04T05:00:51;45.03;;;9.77;;
17864;SDS011;9058;52.018;4.202;2023-02-04T05:03:18;39.17;;;8.00;;
17864;SDS011;9058;52.018;4.202;2023-02-04T05:05:44;52.35;;;11.35;;
17864;SDS011;9058;52.018;4.202;2023-02-04T05:08:10;50.13;;;10.32;;
17864;SDS011;9058;52.018;4.202;2023-02-04T05:10:41;49.75;;;9.48;;
17864;SDS011;9058;52.018;4.202;2023-02-04T05:13:08;52.47;;;9.55;;
17864;SDS011;9058;52.018;4.202;2023-02-04T05:15:35;44.30;;;8.60;;
17864;SDS011;9058;52.018;4.202;2023-02-04T05:18:02;39.88;;;7.97;;
17864;SDS011;9058;52.018;4.202;2023-02-04T05:20:28;46.80;;;7.72;;
17864;SDS011;9058;52.018;4.202;2023-02-04T05:22:55;35.88;;;7.82;;
17864;SDS011;9058;52.018;4.202;2023-02-04T05:25:25;47.28;;;7.20;;
17864;SDS011;9058;52.018;4.202;2023-02-04T05:27:51;42.08;;;7.60;;
17864;SDS011;9058;52.018;4.202;2023-02-04T05:30:18;43.30;;;8.52;;
17864;SDS011;9058;52.018;4.202;2023-02-04T05:32:46;35.88;;;7.57;;
17864;SDS011;9058;52.018;4.202;2023-02-04T05:35:12;43.85;;;7.38;;
17864;SDS011;9058;52.018;4.202;2023-02-04T05:37:38;50.10;;;9.10;;
17864;SDS011;9058;52.018;4.202;2023-02-04T05:40:05;49.30;;;8.43;;
17864;SDS011;9058;52.018;4.202;2023-02-04T05:42:31;38.90;;;7.10;;
17864;SDS011;9058;52.018;4.202;2023-02-04T05:44:58;36.47;;;7.57;;
17864;SDS011;9058;52.018;4.202;2023-02-04T05:47:24;30.20;;;6.47;;
17864;SDS011;9058;52.018;4.202;2023-02-04T05:49:52;42.90;;;6.40;;
17864;SDS011;9058;52.018;4.202;2023-02-04T05:52:18;39.20;;;7.40;;
17864;SDS011;9058;52.018;4.202;2023-02-04T05:54:44;42.47;;;6.38;;
17864;SDS011;9058;52.018;4.202;2023-02-04T05:57:11;37.40;;;6.25;;
17864;SDS011;9058;52.018;4.202;2023-02-04T05:59:37;37.88;;;8.20;;
17864;SDS011;9058;52.018;4.202;2023-02-04T06:02:04;31.45;;;7.47;;
17864;SDS011;9058;52.018;4.202;2023-02-04T06:04:31;33.00;;;7.03;;
17864;SDS011;9058;52.018;4.202;2023-02-04T06:06:59;31.30;;;9.35;;
17864;SDS011;9058;52.018;4.202;2023-02-04T06:09:27;42.58;;;8.77;;
17864;SDS011;9058;52.018;4.202;2023-02-04T06:11:53;42.60;;;10.77;;
17864;SDS011;9058;52.018;4.202;2023-02-04T06:14:21;37.05;;;9.65;;
17864;SDS011;9058;52.018;4.202;2023-02-04T06:16:47;37.05;;;9.23;;
17864;SDS011;9058;52.018;4.202;2023-02-04T06:19:14;33.20;;;8.30;;
17864;SDS011;9058;52.018;4.202;2023-02-04T06:21:40;37.42;;;9.75;;
17864;SDS011;9058;52.018;4.202;2023-02-04T06:24:08;39.40;;;9.27;;
17864;SDS011;9058;52.018;4.202;2023-02-04T06:26:34;39.75;;;9.35;;
17864;SDS011;9058;52.018;4.202;2023-02-04T06:29:03;42.67;;;9.23;;
17864;SDS011;9058;52.018;4.202;2023-02-04T06:31:29;42.97;;;8.02;;
17864;SDS011;9058;52.018;4.202;2023-02-04T06:33:56;42.33;;;7.43;;
17864;SDS011;9058;52.018;4.202;2023-02-04T06:36:24;36.55;;;6.60;;
17864;SDS011;9058;52.018;4.202;2023-02-04T06:38:51;33.55;;;6.68;;
17864;SDS011;9058;52.018;4.202;2023-02-04T06:41:19;41.90;;;6.80;;
17864;SDS011;9058;52.018;4.202;2023-02-04T06:43:46;35.20;;;6.53;;
17864;SDS011;9058;52.018;4.202;2023-02-04T06:46:12;31.45;;;6.93;;
17864;SDS011;9058;52.018;4.202;2023-02-04T06:48:41;30.95;;;6.45;;
17864;SDS011;9058;52.018;4.202;2023-02-04T06:51:07;36.60;;;7.72;;
17864;SDS011;9058;52.018;4.202;2023-02-04T06:53:34;36.85;;;7.95;;
17864;SDS011;9058;52.018;4.202;2023-02-04T06:56:00;43.53;;;6.78;;
17864;SDS011;9058;52.018;4.202;2023-02-04T06:58:29;38.30;;;7.55;;
17864;SDS011;9058;52.018;4.202;2023-02-04T07:00:55;35.10;;;8.45;;
17864;SDS011;9058;52.018;4.202;2023-02-04T07:03:22;43.42;;;10.23;;
17864;SDS011;9058;52.018;4.202;2023-02-04T07:05:48;41.35;;;8.15;;
17864;SDS011;9058;52.018;4.202;2023-02-04T07:08:15;31.60;;;6.95;;
17864;SDS011;9058;52.018;4.202;2023-02-04T07:10:41;36.35;;;7.50;;
17864;SDS011;9058;52.018;4.202;2023-02-04T07:13:07;41.75;;;7.38;;
17864;SDS011;9058;52.018;4.202;2023-02-04T07:15:35;33.95;;;6.88;;
17864;SDS011;9058;52.018;4.202;2023-02-04T07:18:02;39.78;;;7.50;;
17864;SDS011;9058;52.018;4.202;2023-02-04T07:20:28;29.00;;;7.68;;
17864;SDS011;9058;52.018;4.202;2023-02-04T07:22:54;34.83;;;8.93;;
17864;SDS011;9058;52.018;4.202;2023-02-04T07:25:21;36.33;;;8.35;;
17864;SDS011;9058;52.018;4.202;2023-02-04T07:27:47;28.98;;;7.95;;
17864;SDS011;9058;52.018;4.202;2023-02-04T07:30:13;30.38;;;6.90;;
17864;SDS011;9058;52.018;4.202;2023-02-04T07:32:41;31.60;;;8.32;;
17864;SDS011;9058;52.018;4.202;2023-02-04T07:35:08;34.97;;;8.30;;
17864;SDS011;9058;52.018;4.202;2023-02-04T07:37:35;40.55;;;9.60;;
17864;SDS011;9058;52.018;4.202;2023-02-04T07:40:02;32.35;;;7.28;;
17864;SDS011;9058;52.018;4.202;2023-02-04T07:42:28;27.77;;;7.95;;
17864;SDS011;9058;52.018;4.202;2023-02-04T07:44:56;30.33;;;7.72;;
17864;SDS011;9058;52.018;4.202;2023-02-04T07:47:22;31.85;;;9.07;;
17864;SDS011;9058;52.018;4.202;2023-02-04T07:49:50;36.10;;;9.50;;
17864;SDS011;9058;52.018;4.202;2023-02-04T07:52:18;28.83;;;9.05;;
17864;SDS011;9058;52.018;4.202;2023-02-04T07:54:45;34.08;;;8.82;;
17864;SDS011;9058;52.018;4.202;2023-02-04T07:57:11;35.25;;;11.20;;
17864;SDS011;9058;52.018;4.202;2023-02-04T07:59:37;33.17;;;9.13;;
17864;SDS011;9058;52.018;4.202;2023-02-04T08:02:03;34.33;;;10.90;;
17864;SDS011;9058;52.018;4.202;2023-02-04T08:04:31;32.03;;;10.45;;
17864;SDS011;9058;52.018;4.202;2023-02-04T08:06:59;38.85;;;12.80;;
17864;SDS011;9058;52.018;4.202;2023-02-04T08:09:25;40.22;;;12.57;;
17864;SDS011;9058;52.018;4.202;2023-02-04T08:11:52;37.55;;;11.52;;
17864;SDS011;9058;52.018;4.202;2023-02-04T08:14:19;31.00;;;12.05;;
17864;SDS011;9058;52.018;4.202;2023-02-04T08:16:45;30.05;;;13.10;;
17864;SDS011;9058;52.018;4.202;2023-02-04T08:19:12;35.30;;;12.32;;
17864;SDS011;9058;52.018;4.202;2023-02-04T08:21:42;34.67;;;13.43;;
17864;SDS011;9058;52.018;4.202;2023-02-04T08:24:15;35.42;;;13.00;;
17864;SDS011;9058;52.018;4.202;2023-02-04T08:26:42;34.83;;;13.63;;
17864;SDS011;9058;52.018;4.202;2023-02-04T08:29:09;33.72;;;13.98;;
17864;SDS011;9058;52.018;4.202;2023-02-04T08:31:36;40.13;;;14.80;;
17864;SDS011;9058;52.018;4.202;2023-02-04T08:34:03;34.72;;;13.80;;
17864;SDS011;9058;52.018;4.202;2023-02-04T08:36:29;43.03;;;15.25;;
17864;SDS011;9058;52.018;4.202;2023-02-04T08:38:55;31.00;;;11.05;;
17864;SDS011;9058;52.018;4.202;2023-02-04T08:41:23;32.85;;;9.90;;
17864;SDS011;9058;52.018;4.202;2023-02-04T08:43:49;28.13;;;9.15;;
17864;SDS011;9058;52.018;4.202;2023-02-04T08:46:16;23.40;;;9.27;;
17864;SDS011;9058;52.018;4.202;2023-02-04T08:48:43;29.20;;;9.55;;
17864;SDS011;9058;52.018;4.202;2023-02-04T08:51:09;30.15;;;9.32;;
17864;SDS011;9058;52.018;4.202;2023-02-04T08:53:36;27.10;;;8.25;;
17864;SDS011;9058;52.018;4.202;2023-02-04T08:56:04;31.50;;;10.45;;
17864;SDS011;9058;52.018;4.202;2023-02-04T08:58:32;28.83;;;9.93;;
17864;SDS011;9058;52.018;4.202;2023-02-04T09:00:58;29.67;;;10.75;;
17864;SDS011;9058;52.018;4.202;2023-02-04T09:03:25;27.52;;;12.05;;
17864;SDS011;9058;52.018;4.202;2023-02-04T09:05:52;30.08;;;11.38;;
17864;SDS011;9058;52.018;4.202;2023-02-04T09:08:18;24.45;;;12.05;;
17864;SDS011;9058;52.018;4.202;2023-02-04T09:10:44;34.13;;;14.55;;
17864;SDS011;9058;52.018;4.202;2023-02-04T09:13:11;27.88;;;14.02;;
17864;SDS011;9058;52.018;4.202;2023-02-04T09:15:40;28.50;;;13.55;;
17864;SDS011;9058;52.018;4.202;2023-02-04T09:18:07;30.70;;;13.98;;
17864;SDS011;9058;52.018;4.202;2023-02-04T09:20:40;32.22;;;13.20;;
17864;SDS011;9058;52.018;4.202;2023-02-04T09:23:06;26.98;;;12.10;;
17864;SDS011;9058;52.018;4.202;2023-02-04T09:25:36;34.08;;;12.13;;
17864;SDS011;9058;52.018;4.202;2023-02-04T09:28:02;36.70;;;12.25;;
17864;SDS011;9058;52.018;4.202;2023-02-04T09:30:29;29.13;;;11.45;;
17864;SDS011;9058;52.018;4.202;2023-02-04T09:32:56;26.55;;;11.18;;
17864;SDS011;9058;52.018;4.202;2023-02-04T09:35:23;33.38;;;11.07;;
17864;SDS011;9058;52.018;4.202;2023-02-04T09:37:49;34.67;;;13.23;;
17864;SDS011;9058;52.018;4.202;2023-02-04T09:40:16;30.38;;;14.75;;
17864;SDS011;9058;52.018;4.202;2023-02-04T09:42:44;28.80;;;13.57;;
17864;SDS011;9058;52.018;4.202;2023-02-04T09:45:13;24.75;;;12.32;;
17864;SDS011;9058;52.018;4.202;2023-02-04T09:47:41;26.85;;;11.30;;
17864;SDS011;9058;52.018;4.202;2023-02-04T09:50:11;34.08;;;13.07;;
17864;SDS011;9058;52.018;4.202;2023-02-04T09:52:39;33.83;;;15.60;;
17864;SDS011;9058;52.018;4.202;2023-02-04T09:55:07;35.58;;;14.90;;
17864;SDS011;9058;52.018;4.202;2023-02-04T09:57:34;35.92;;;20.50;;
17864;SDS011;9058;52.018;4.202;2023-02-04T10:00:01;32.00;;;14.93;;
17864;SDS011;9058;52.018;4.202;2023-02-04T10:02:27;30.33;;;15.13;;
17864;SDS011;9058;52.018;4.202;2023-02-04T10:04:54;35.40;;;15.88;;
17864;SDS011;9058;52.018;4.202;2023-02-04T10:07:24;36.00;;;15.70;;
17864;SDS011;9058;52.018;4.202;2023-02-04T10:09:51;35.40;;;17.42;;
17864;SDS011;9058;52.018;4.202;2023-02-04T10:12:19;22.45;;;8.88;;
17864;SDS011;9058;52.018;4.202;2023-02-04T10:14:45;23.35;;;9.98;;
17864;SDS011;9058;52.018;4.202;2023-02-04T10:17:13;29.90;;;10.65;;
17864;SDS011;9058;52.018;4.202;2023-02-04T10:19:41;31.38;;;11.63;;
17864;SDS011;9058;52.018;4.202;2023-02-04T10:22:09;22.13;;;10.55;;
17864;SDS011;9058;52.018;4.202;2023-02-04T10:24:39;24.48;;;11.10;;
17864;SDS011;9058;52.018;4.202;2023-02-04T10:27:06;25.95;;;11.45;;
17864;SDS011;9058;52.018;4.202;2023-02-04T10:29:32;22.30;;;11.10;;
17864;SDS011;9058;52.018;4.202;2023-02-04T10:31:59;21.98;;;9.93;;
17864;SDS011;9058;52.018;4.202;2023-02-04T10:34:31;28.02;;;11.82;;
17864;SDS011;9058;52.018;4.202;2023-02-04T10:36:58;28.55;;;11.38;;
17864;SDS011;9058;52.018;4.202;2023-02-04T10:39:27;24.98;;;10.55;;
17864;SDS011;9058;52.018;4.202;2023-02-04T10:41:56;28.83;;;10.93;;
17864;SDS011;9058;52.018;4.202;2023-02-04T10:44:24;23.10;;;10.25;;
17864;SDS011;9058;52.018;4.202;2023-02-04T10:46:57;19.58;;;8.75;;
17864;SDS011;9058;52.018;4.202;2023-02-04T10:49:23;19.52;;;8.48;;
17864;SDS011;9058;52.018;4.202;2023-02-04T10:51:52;23.88;;;9.23;;
17864;SDS011;9058;52.018;4.202;2023-02-04T10:54:20;21.25;;;7.57;;
17864;SDS011;9058;52.018;4.202;2023-02-04T10:56:56;16.77;;;6.43;;
17864;SDS011;9058;52.018;4.202;2023-02-04T10:59:23;17.65;;;7.50;;
17864;SDS011;9058;52.018;4.202;2023-02-04T11:01:52;21.05;;;7.70;;
17864;SDS011;9058;52.018;4.202;2023-02-04T11:04:18;20.45;;;8.07;;
17864;SDS011;9058;52.018;4.202;2023-02-04T11:06:44;19.73;;;7.95;;
17864;SDS011;9058;52.018;4.202;2023-02-04T11:09:11;17.08;;;7.43;;
17864;SDS011;9058;52.018;4.202;2023-02-04T11:11:38;18.73;;;8.07;;
17864;SDS011;9058;52.018;4.202;2023-02-04T11:14:20;13.93;;;6.57;;
17864;SDS011;9058;52.018;4.202;2023-02-04T11:16:47;19.02;;;6.22;;
17864;SDS011;9058;52.018;4.202;2023-02-04T11:19:13;16.40;;;7.45;;
17864;SDS011;9058;52.018;4.202;2023-02-04T11:21:42;15.60;;;8.10;;
17864;SDS011;9058;52.018;4.202;2023-02-04T11:24:20;17.23;;;8.57;;
17864;SDS011;9058;52.018;4.202;2023-02-04T11:26:48;14.05;;;7.65;;
17864;SDS011;9058;52.018;4.202;2023-02-04T11:29:26;19.13;;;9.32;;
17864;SDS011;9058;52.018;4.202;2023-02-04T11:31:56;19.25;;;8.90;;
17864;SDS011;9058;52.018;4.202;2023-02-04T11:34:24;19.75;;;8.98;;
17864;SDS011;9058;52.018;4.202;2023-02-04T11:36:55;22.20;;;11.80;;
17864;SDS011;9058;52.018;4.202;2023-02-04T11:39:23;18.42;;;10.45;;
17864;SDS011;9058;52.018;4.202;2023-02-04T11:41:54;19.00;;;9.13;;
17864;SDS011;9058;52.018;4.202;2023-02-04T11:44:20;20.15;;;10.23;;
17864;SDS011;9058;52.018;4.202;2023-02-04T11:46:51;20.30;;;8.45;;
17864;SDS011;9058;52.018;4.202;2023-02-04T11:49:19;20.15;;;8.85;;
17864;SDS011;9058;52.018;4.202;2023-02-04T11:51:46;22.67;;;9.57;;
17864;SDS011;9058;52.018;4.202;2023-02-04T11:54:13;21.20;;;9.75;;
17864;SDS011;9058;52.018;4.202;2023-02-04T11:56:43;21.35;;;8.55;;
17864;SDS011;9058;52.018;4.202;2023-02-04T11:59:11;21.73;;;8.60;;
17864;SDS011;9058;52.018;4.202;2023-02-04T12:01:38;20.83;;;9.02;;
17864;SDS011;9058;52.018;4.202;2023-02-04T12:04:21;17.52;;;8.02;;
17864;SDS011;9058;52.018;4.202;2023-02-04T12:06:55;19.52;;;7.90;;
17864;SDS011;9058;52.018;4.202;2023-02-04T12:09:23;19.33;;;8.40;;
17864;SDS011;9058;52.018;4.202;2023-02-04T12:11:50;13.98;;;6.78;;
17864;SDS011;9058;52.018;4.202;2023-02-04T12:14:17;11.88;;;6.05;;
17864;SDS011;9058;52.018;4.202;2023-02-04T12:16:46;24.98;;;6.13;;
17864;SDS011;9058;52.018;4.202;2023-02-04T12:19:15;18.25;;;6.40;;
17864;SDS011;9058;52.018;4.202;2023-02-04T12:21:43;19.55;;;7.43;;
17864;SDS011;9058;52.018;4.202;2023-02-04T12:24:10;18.63;;;8.60;;
17864;SDS011;9058;52.018;4.202;2023-02-04T12:26:36;20.02;;;8.60;;
17864;SDS011;9058;52.018;4.202;2023-02-04T12:29:02;19.92;;;9.10;;
17864;SDS011;9058;52.018;4.202;2023-02-04T12:31:30;18.20;;;5.90;;
17864;SDS011;9058;52.018;4.202;2023-02-04T12:33:56;19.65;;;6.80;;
17864;SDS011;9058;52.018;4.202;2023-02-04T12:36:23;23.08;;;7.50;;
17864;SDS011;9058;52.018;4.202;2023-02-04T12:38:52;19.88;;;7.00;;
17864;SDS011;9058;52.018;4.202;2023-02-04T12:41:19;12.93;;;5.03;;
17864;SDS011;9058;52.018;4.202;2023-02-04T12:43:45;13.40;;;5.40;;
17864;SDS011;9058;52.018;4.202;2023-02-04T12:46:14;16.08;;;6.80;;
17864;SDS011;9058;52.018;4.202;2023-02-04T12:48:41;18.17;;;7.82;;
17864;SDS011;9058;52.018;4.202;2023-02-04T12:51:07;17.85;;;9.18;;
17864;SDS011;9058;52.018;4.202;2023-02-04T12:53:34;17.30;;;10.38;;
17864;SDS011;9058;52.018;4.202;2023-02-04T12:56:03;17.45;;;9.05;;
17864;SDS011;9058;52.018;4.202;2023-02-04T12:58:29;18.42;;;9.35;;
17864;SDS011;9058;52.018;4.202;2023-02-04T13:00:55;16.67;;;8.52;;
17864;SDS011;9058;52.018;4.202;2023-02-04T13:03:22;17.23;;;9.65;;
17864;SDS011;9058;52.018;4.202;2023-02-04T13:05:49;19.98;;;10.20;;
17864;SDS011;9058;52.018;4.202;2023-02-04T13:08:16;18.65;;;12.45;;
17864;SDS011;9058;52.018;4.202;2023-02-04T13:10:42;19.05;;;12.02;;
17864;SDS011;9058;52.018;4.202;2023-02-04T13:13:10;25.30;;;13.80;;
17864;SDS011;9058;52.018;4.202;2023-02-04T13:15:36;27.08;;;13.60;;
17864;SDS011;9058;52.018;4.202;2023-02-04T13:18:03;18.45;;;11.68;;
17864;SDS011;9058;52.018;4.202;2023-02-04T13:20:29;24.95;;;13.57;;
17864;SDS011;9058;52.018;4.202;2023-02-04T13:22:56;21.10;;;13.63;;
17864;SDS011;9058;52.018;4.202;2023-02-04T13:25:23;22.30;;;13.32;;
17864;SDS011;9058;52.018;4.202;2023-02-04T13:27:49;21.92;;;13.82;;
17864;SDS011;9058;52.018;4.202;2023-02-04T13:30:17;24.48;;;15.30;;
17864;SDS011;9058;52.018;4.202;2023-02-04T13:32:44;21.83;;;15.10;;
17864;SDS011;9058;52.018;4.202;2023-02-04T13:35:10;19.55;;;14.25;;
17864;SDS011;9058;52.018;4.202;2023-02-04T13:37:37;18.05;;;12.93;;
17864;SDS011;9058;52.018;4.202;2023-02-04T13:40:03;16.15;;;11.65;;
17864;SDS011;9058;52.018;4.202;2023-02-04T13:42:29;14.77;;;11.07;;
17864;SDS011;9058;52.018;4.202;2023-02-04T13:44:56;22.75;;;14.55;;
17864;SDS011;9058;52.018;4.202;2023-02-04T13:47:23;16.52;;;11.70;;
17864;SDS011;9058;52.018;4.202;2023-02-04T13:49:50;18.77;;;11.88;;
17864;SDS011;9058;52.018;4.202;2023-02-04T13:52:16;20.83;;;13.75;;
17864;SDS011;9058;52.018;4.202;2023-02-04T13:54:43;20.98;;;13.27;;
17864;SDS011;9058;52.018;4.202;2023-02-04T13:57:11;18.80;;;13.48;;
17864;SDS011;9058;52.018;4.202;2023-02-04T13:59:37;24.55;;;15.05;;
17864;SDS011;9058;52.018;4.202;2023-02-04T14:02:03;24.67;;;15.38;;
17864;SDS011;9058;52.018;4.202;2023-02-04T14:04:31;23.52;;;15.25;;
17864;SDS011;9058;52.018;4.202;2023-02-04T14:06:57;22.30;;;14.10;;
17864;SDS011;9058;52.018;4.202;2023-02-04T14:09:24;28.40;;;17.17;;
17864;SDS011;9058;52.018;4.202;2023-02-04T14:11:50;26.30;;;16.48;;
17864;SDS011;9058;52.018;4.202;2023-02-04T14:14:17;23.02;;;14.63;;
17864;SDS011;9058;52.018;4.202;2023-02-04T14:16:44;20.75;;;12.77;;
17864;SDS011;9058;52.018;4.202;2023-02-04T14:19:10;16.13;;;11.52;;
17864;SDS011;9058;52.018;4.202;2023-02-04T14:21:39;20.13;;;13.63;;
17864;SDS011;9058;52.018;4.202;2023-02-04T14:24:05;18.08;;;12.82;;
17864;SDS011;9058;52.018;4.202;2023-02-04T14:26:32;23.27;;;13.73;;
17864;SDS011;9058;52.018;4.202;2023-02-04T14:28:58;21.20;;;14.35;;
17864;SDS011;9058;52.018;4.202;2023-02-04T14:31:25;27.48;;;16.25;;
17864;SDS011;9058;52.018;4.202;2023-02-04T14:33:52;22.83;;;16.15;;
17864;SDS011;9058;52.018;4.202;2023-02-04T14:36:19;23.25;;;15.60;;
17864;SDS011;9058;52.018;4.202;2023-02-04T14:38:48;22.25;;;15.30;;
17864;SDS011;9058;52.018;4.202;2023-02-04T14:41:18;21.77;;;13.65;;
17864;SDS011;9058;52.018;4.202;2023-02-04T14:43:45;19.65;;;13.82;;